Time;durP1;ratioP1;P1;durP2;ratioP2;P2;SDS_P1;SDS_P2;PMS_P1;PMS_P2;Temp;Humidity;BMP_temperature;BMP_pressure;BME280_temperature;BME280_humidity;BME280_pressure;Samples;Min_cycle;Max_cycle;Signal;HPM_P1;HPM_P2
2021/05/29 00:01:10;;;;;;;2.00;1.80;;;12.20;99.90;;;;;;5026879;28;20649;-93
2021/05/29 00:03:36;;;;;;;3.23;1.40;;;12.20;99.90;;;;;;5026431;28;20681;-94
2021/05/29 00:06:03;;;;;;;2.47;1.67;;;12.20;99.90;;;;;;5031287;28;20656;-92
2021/05/29 00:08:30;;;;;;;2.13;1.27;;;12.20;99.90;;;;;;5029025;28;20662;-93
2021/05/29 00:11:01;;;;;;;2.30;1.30;;;12.20;99.90;;;;;;5025764;28;20669;-92
2021/05/29 00:13:30;;;;;;;1.60;1.50;;;12.20;99.90;;;;;;5032626;28;20651;-92
2021/05/29 00:15:57;;;;;;;1.50;1.40;;;12.20;99.90;;;;;;5029381;28;20669;-92
2021/05/29 00:18:24;;;;;;;1.90;1.43;;;12.20;99.90;;;;;;5026612;28;21406;-93
2021/05/29 00:20:52;;;;;;;1.70;1.60;;;12.30;99.90;;;;;;5027105;28;20661;-93
2021/05/29 00:23:19;;;;;;;2.90;1.80;;;12.30;99.90;;;;;;5028625;28;20630;-92
2021/05/29 00:25:46;;;;;;;2.10;1.90;;;12.30;99.90;;;;;;5028776;28;20625;-92
2021/05/29 00:28:15;;;;;;;3.07;1.60;;;12.30;99.90;;;;;;5026146;28;20671;-91
2021/05/29 00:30:43;;;;;;;1.93;1.60;;;12.20;99.90;;;;;;5028825;28;20700;-92
2021/05/29 00:33:10;;;;;;;1.70;1.60;;;12.30;99.90;;;;;;5026737;28;20637;-91
2021/05/29 00:35:36;;;;;;;4.30;1.70;;;12.30;99.90;;;;;;5022561;28;20627;-93
2021/05/29 00:38:03;;;;;;;1.83;1.57;;;12.30;99.90;;;;;;5023706;28;20984;-92
2021/05/29 00:40:30;;;;;;;2.27;1.40;;;12.30;99.90;;;;;;5023802;28;20658;-92
2021/05/29 00:42:56;;;;;;;2.27;1.60;;;12.20;99.90;;;;;;5024202;28;21182;-92
2021/05/29 00:45:23;;;;;;;1.80;1.70;;;12.10;99.90;;;;;;5022518;28;20642;-91
2021/05/29 00:47:50;;;;;;;3.27;1.60;;;12.00;99.90;;;;;;5022527;28;20698;-92
2021/05/29 00:50:18;;;;;;;2.27;1.90;;;12.10;99.90;;;;;;5019682;28;20655;-93
2021/05/29 00:52:46;;;;;;;2.60;1.60;;;12.20;99.90;;;;;;5023362;28;20842;-92
2021/05/29 00:55:15;;;;;;;1.80;1.70;;;12.20;99.90;;;;;;5024654;28;20618;-93
2021/05/29 00:57:45;;;;;;;2.20;1.40;;;12.10;99.90;;;;;;5021353;28;20624;-92
2021/05/29 01:00:13;;;;;;;2.83;1.63;;;12.00;99.90;;;;;;5022830;28;20654;-92
2021/05/29 01:02:41;;;;;;;1.60;1.50;;;11.90;99.90;;;;;;5024692;28;20912;-93
2021/05/29 01:05:11;;;;;;;2.03;1.67;;;11.90;99.90;;;;;;5023159;28;20685;-93
2021/05/29 01:07:38;;;;;;;1.83;1.73;;;11.80;99.90;;;;;;5034813;28;20743;-93
2021/05/29 01:10:06;;;;;;;1.60;1.50;;;11.90;99.90;;;;;;5027495;28;20707;-94
2021/05/29 01:12:34;;;;;;;2.07;1.40;;;11.80;99.90;;;;;;5033570;28;20647;-93
2021/05/29 01:15:06;;;;;;;1.80;1.70;;;11.80;99.90;;;;;;5045892;28;20628;-94
2021/05/29 01:17:32;;;;;;;1.63;1.53;;;11.70;99.90;;;;;;5039301;28;21174;-95
2021/05/29 01:20:00;;;;;;;1.80;1.70;;;11.70;99.90;;;;;;5028821;28;20997;-94
2021/05/29 01:22:39;;;;;;;2.40;1.70;;;11.60;99.90;;;;;;5030355;28;20618;-93
2021/05/29 01:25:09;;;;;;;2.00;1.80;;;11.50;99.90;;;;;;5028260;28;20777;-90
2021/05/29 01:27:35;;;;;;;2.00;1.43;;;11.60;99.90;;;;;;5015550;28;20658;-90
2021/05/29 01:30:05;;;;;;;3.30;1.80;;;11.60;99.90;;;;;;5016833;28;21007;-92
2021/05/29 01:32:33;;;;;;;3.30;1.90;;;11.50;99.90;;;;;;5022379;28;20631;-92
2021/05/29 01:35:01;;;;;;;2.20;1.90;;;11.40;99.90;;;;;;5024937;28;20646;-93
2021/05/29 01:37:29;;;;;;;2.20;2.00;;;11.40;99.90;;;;;;5024574;28;20642;-92
2021/05/29 01:39:57;;;;;;;6.27;2.00;;;11.50;99.90;;;;;;5033271;28;20712;-92
2021/05/29 01:42:24;;;;;;;1.57;1.47;;;11.50;99.90;;;;;;5028148;28;20619;-91
2021/05/29 01:44:51;;;;;;;1.70;1.60;;;11.50;99.90;;;;;;5028393;28;20611;-91
2021/05/29 01:47:19;;;;;;;2.10;1.53;;;11.60;99.90;;;;;;5028636;28;20672;-94
2021/05/29 01:49:45;;;;;;;3.10;1.87;;;11.40;99.90;;;;;;5031309;28;20679;-92
2021/05/29 01:52:12;;;;;;;1.73;1.63;;;11.40;99.90;;;;;;5029620;28;20634;-92
2021/05/29 01:54:38;;;;;;;1.87;1.77;;;11.40;99.90;;;;;;5027964;28;20634;-92
2021/05/29 01:57:06;;;;;;;2.30;1.70;;;11.30;99.90;;;;;;5025381;28;20619;-92
2021/05/29 01:59:33;;;;;;;2.53;2.10;;;11.40;99.90;;;;;;5027849;28;20684;-92
2021/05/29 02:01:59;;;;;;;3.00;2.23;;;11.30;99.90;;;;;;5027629;28;20622;-90
2021/05/29 02:04:26;;;;;;;3.30;1.73;;;11.30;99.90;;;;;;5025594;28;20646;-91
2021/05/29 02:06:56;;;;;;;3.40;1.80;;;11.20;99.90;;;;;;5024032;28;20630;-91
2021/05/29 02:09:23;;;;;;;4.77;1.97;;;11.20;99.90;;;;;;5029434;28;20626;-92
2021/05/29 02:11:51;;;;;;;3.60;2.10;;;11.10;99.90;;;;;;5022922;28;20619;-92
2021/05/29 02:14:19;;;;;;;2.33;2.13;;;11.20;99.90;;;;;;5021684;28;20619;-93
2021/05/29 02:16:47;;;;;;;2.00;1.90;;;11.20;99.90;;;;;;5027106;28;20646;-92
2021/05/29 02:19:14;;;;;;;2.80;1.80;;;11.10;99.90;;;;;;5022205;28;20631;-93
2021/05/29 02:21:41;;;;;;;3.10;1.70;;;11.10;99.90;;;;;;5027515;28;20676;-93
2021/05/29 02:24:07;;;;;;;1.70;1.60;;;11.10;99.90;;;;;;5024876;28;20627;-92
2021/05/29 02:26:35;;;;;;;2.40;2.20;;;11.00;99.90;;;;;;5024969;28;20643;-92
2021/05/29 02:29:01;;;;;;;2.40;1.90;;;11.00;99.90;;;;;;5031142;28;20667;-92
2021/05/29 02:31:28;;;;;;;1.90;1.80;;;11.00;99.90;;;;;;5031252;28;21275;-92
2021/05/29 02:33:56;;;;;;;2.60;2.10;;;11.00;99.90;;;;;;5023916;28;20620;-93
2021/05/29 02:36:23;;;;;;;4.50;2.03;;;10.90;99.90;;;;;;5033945;28;20611;-94
2021/05/29 02:38:50;;;;;;;3.90;2.30;;;10.90;99.90;;;;;;5024872;28;20626;-92
2021/05/29 02:41:17;;;;;;;2.07;1.97;;;10.90;99.90;;;;;;5020413;28;20774;-92
2021/05/29 02:43:44;;;;;;;3.23;2.27;;;10.80;99.90;;;;;;5022319;28;20687;-92
2021/05/29 02:46:13;;;;;;;2.40;2.20;;;10.80;99.90;;;;;;5026510;28;20637;-91
2021/05/29 02:48:40;;;;;;;5.30;2.33;;;10.70;99.90;;;;;;5020257;28;20662;-91
2021/05/29 02:51:07;;;;;;;2.60;2.40;;;10.70;99.90;;;;;;5029657;28;20651;-92
2021/05/29 02:53:38;;;;;;;3.60;2.33;;;10.60;99.90;;;;;;5033800;28;20602;-92
2021/05/29 02:56:05;;;;;;;4.00;2.80;;;10.60;99.90;;;;;;5046452;28;20632;-92
2021/05/29 02:58:31;;;;;;;2.70;2.50;;;10.50;99.90;;;;;;5043835;28;20624;-93
2021/05/29 03:00:57;;;;;;;2.57;2.37;;;10.40;99.90;;;;;;5045952;28;20658;-91
2021/05/29 03:03:25;;;;;;;2.37;2.17;;;10.30;99.90;;;;;;5046337;28;20625;-91
2021/05/29 03:05:54;;;;;;;2.70;2.50;;;10.30;99.90;;;;;;5040178;28;20642;-93
2021/05/29 03:08:22;;;;;;;3.00;2.30;;;10.30;99.90;;;;;;5044122;28;20632;-92
2021/05/29 03:10:50;;;;;;;2.67;2.47;;;10.20;99.90;;;;;;5044636;28;20719;-92
2021/05/29 03:13:17;;;;;;;2.37;2.27;;;10.20;99.90;;;;;;5047699;28;20626;-93
2021/05/29 03:15:44;;;;;;;3.20;2.53;;;10.20;99.90;;;;;;5042006;28;20642;-95
2021/05/29 03:18:11;;;;;;;3.83;2.50;;;10.10;99.90;;;;;;5029360;28;20639;-95
2021/05/29 03:20:38;;;;;;;2.93;2.37;;;10.10;99.90;;;;;;5028403;28;20667;-94
2021/05/29 03:23:06;;;;;;;4.93;2.70;;;10.20;99.90;;;;;;5028326;28;20716;-92
2021/05/29 03:25:33;;;;;;;2.57;2.37;;;10.20;99.90;;;;;;5024655;28;20645;-93
2021/05/29 03:28:00;;;;;;;3.47;2.60;;;10.20;99.90;;;;;;5028950;28;20650;-92
2021/05/29 03:30:28;;;;;;;3.67;2.63;;;10.20;99.90;;;;;;5030200;28;21010;-93
2021/05/29 03:32:57;;;;;;;2.20;2.00;;;10.10;99.90;;;;;;5019639;28;20638;-92
2021/05/29 03:35:24;;;;;;;2.03;1.83;;;10.20;99.90;;;;;;5028702;28;20695;-92
2021/05/29 03:37:51;;;;;;;3.23;2.43;;;10.20;99.90;;;;;;5031002;28;20670;-93
2021/05/29 03:40:18;;;;;;;3.70;2.30;;;10.10;99.90;;;;;;5020766;28;21093;-93
2021/05/29 03:42:46;;;;;;;3.00;2.70;;;10.10;99.90;;;;;;5024517;28;20896;-93
2021/05/29 03:45:15;;;;;;;3.10;2.60;;;10.20;99.90;;;;;;5034042;28;20630;-94
2021/05/29 03:47:45;;;;;;;4.57;3.57;;;10.30;99.90;;;;;;5029890;28;20788;-92
2021/05/29 03:50:14;;;;;;;2.87;2.10;;;10.30;99.90;;;;;;5024852;28;20712;-93
2021/05/29 03:52:41;;;;;;;2.67;2.47;;;10.30;99.90;;;;;;5027316;28;20702;-93
2021/05/29 03:55:09;;;;;;;2.33;2.13;;;10.30;99.90;;;;;;5031306;28;20637;-91
2021/05/29 03:57:36;;;;;;;3.60;2.80;;;10.30;99.90;;;;;;5032297;28;20623;-91
2021/05/29 04:00:07;;;;;;;4.30;2.30;;;10.30;99.90;;;;;;5034611;28;20663;-94
2021/05/29 04:02:33;;;;;;;2.83;2.50;;;10.40;99.90;;;;;;5042810;28;20615;-92
2021/05/29 04:05:03;;;;;;;2.53;2.27;;;10.50;99.90;;;;;;5045481;28;20682;-93
2021/05/29 04:07:29;;;;;;;2.90;2.60;;;10.50;99.90;;;;;;5036827;28;20658;-88
2021/05/29 04:09:56;;;;;;;3.50;2.63;;;10.60;99.90;;;;;;5038457;28;20678;-91
2021/05/29 04:12:22;;;;;;;3.27;3.07;;;10.70;99.90;;;;;;5035954;28;20615;-90
2021/05/29 04:14:50;;;;;;;4.77;2.57;;;10.70;99.90;;;;;;5037831;28;20623;-92
2021/05/29 04:17:17;;;;;;;3.30;3.00;;;10.60;99.90;;;;;;5040383;28;20620;-90
2021/05/29 04:19:45;;;;;;;3.63;3.13;;;10.70;99.90;;;;;;5038994;28;20704;-91
2021/05/29 04:22:13;;;;;;;5.50;5.00;;;10.70;99.90;;;;;;5052654;28;20571;-89
2021/05/29 04:24:39;;;;;;;4.53;3.37;;;10.80;99.90;;;;;;5044952;28;20612;-91
2021/05/29 04:27:06;;;;;;;3.33;2.73;;;10.80;99.90;;;;;;5053555;28;20629;-93
2021/05/29 04:29:34;;;;;;;3.20;2.60;;;10.90;99.90;;;;;;5054434;28;20656;-91
2021/05/29 04:32:03;;;;;;;3.33;3.10;;;10.90;99.90;;;;;;5046659;28;20719;-92
2021/05/29 04:34:30;;;;;;;3.70;3.20;;;10.80;99.90;;;;;;5054474;28;20611;-90
2021/05/29 04:36:56;;;;;;;4.20;3.10;;;10.80;99.90;;;;;;5055197;28;20635;-92
2021/05/29 04:39:27;;;;;;;3.90;3.23;;;10.80;99.90;;;;;;5054774;28;20632;-92
2021/05/29 04:41:54;;;;;;;3.13;2.80;;;10.80;99.90;;;;;;5061701;28;20632;-92
2021/05/29 04:47:45;;;;;;;3.87;3.50;;;11.00;99.90;;;;;;5054488;28;20635;-92
2021/05/29 04:53:33;;;;;;;3.80;3.07;;;11.30;99.90;;;;;;5057404;28;20567;-90
2021/05/29 04:56:14;;;;;;;3.17;2.90;;;11.30;99.90;;;;;;5055453;28;20625;-91
2021/05/29 04:58:42;;;;;;;3.13;2.83;;;11.30;99.90;;;;;;5054317;28;20655;-89
2021/05/29 05:01:12;;;;;;;6.00;3.03;;;11.30;99.90;;;;;;5043274;28;20678;-90
2021/05/29 05:03:40;;;;;;;5.57;3.20;;;11.40;99.90;;;;;;5041287;28;20673;-87
2021/05/29 05:06:12;;;;;;;4.40;3.17;;;11.60;99.90;;;;;;5041209;28;20638;-87
2021/05/29 05:08:39;;;;;;;2.63;2.43;;;11.70;99.90;;;;;;5039398;28;20673;-88
2021/05/29 05:11:05;;;;;;;3.30;3.00;;;11.90;99.90;;;;;;5036540;28;20643;-87
2021/05/29 05:13:32;;;;;;;4.73;3.50;;;12.10;99.90;;;;;;5034761;28;20653;-89
2021/05/29 05:15:58;;;;;;;8.73;3.47;;;12.20;99.90;;;;;;5044549;28;20644;-88
2021/05/29 05:18:24;;;;;;;4.20;3.50;;;12.40;99.90;;;;;;5046598;28;20683;-86
2021/05/29 05:20:53;;;;;;;4.30;3.47;;;12.40;99.90;;;;;;5048251;28;20687;-87
2021/05/29 05:23:22;;;;;;;3.53;2.53;;;12.60;99.90;;;;;;5047424;28;20619;-87
2021/05/29 05:25:48;;;;;;;3.17;2.87;;;12.80;99.90;;;;;;5050541;28;20608;-88
2021/05/29 05:28:15;;;;;;;3.00;2.73;;;13.00;99.90;;;;;;5050384;28;20669;-88
2021/05/29 05:30:42;;;;;;;2.50;2.30;;;13.20;99.90;;;;;;5047349;28;20734;-89
2021/05/29 05:33:09;;;;;;;7.30;2.50;;;13.40;99.90;;;;;;5047398;28;20663;-89
2021/05/29 05:35:37;;;;;;;4.63;3.07;;;13.50;99.90;;;;;;5041406;28;21007;-89
2021/05/29 05:38:06;;;;;;;2.20;2.00;;;13.70;99.90;;;;;;5040162;28;20633;-88
2021/05/29 05:40:32;;;;;;;2.50;2.30;;;13.90;99.90;;;;;;5038886;28;20685;-88
2021/05/29 05:43:00;;;;;;;2.13;1.80;;;14.00;99.90;;;;;;5046257;28;20702;-90
2021/05/29 05:45:28;;;;;;;2.20;2.00;;;14.10;99.90;;;;;;5040416;28;20627;-88
2021/05/29 05:47:55;;;;;;;3.10;2.80;;;14.30;99.90;;;;;;5047326;28;20651;-89
2021/05/29 05:50:22;;;;;;;3.93;3.40;;;14.40;99.90;;;;;;5038876;28;20693;-89
2021/05/29 05:52:49;;;;;;;4.07;2.70;;;14.30;99.90;;;;;;5038356;28;20719;-89
2021/05/29 05:55:16;;;;;;;2.93;2.63;;;14.30;99.90;;;;;;5035621;28;20608;-89
2021/05/29 05:57:43;;;;;;;3.80;2.53;;;14.50;99.90;;;;;;5040071;28;20618;-90
2021/05/29 06:00:13;;;;;;;2.80;1.77;;;14.60;99.90;;;;;;5036947;28;20659;-92
2021/05/29 06:02:42;;;;;;;3.70;1.70;;;14.50;99.90;;;;;;5045375;28;20607;-92
2021/05/29 06:05:10;;;;;;;2.50;2.00;;;14.60;99.90;;;;;;5047956;28;20633;-91
2021/05/29 06:07:36;;;;;;;1.77;1.67;;;14.70;99.90;;;;;;5032882;28;21228;-89
2021/05/29 06:10:05;;;;;;;2.73;1.50;;;14.90;99.90;;;;;;5033136;28;20646;-90
2021/05/29 06:12:38;;;;;;;2.07;1.87;;;15.00;99.90;;;;;;5029738;28;20657;-89
2021/05/29 06:20:44;;;;;;;2.00;1.87;;;15.10;99.90;;;;;;5014701;28;20697;-90
2021/05/29 06:23:12;;;;;;;1.60;1.50;;;15.20;99.90;;;;;;5030019;28;20688;-88
2021/05/29 06:25:39;;;;;;;2.50;2.07;;;15.30;99.90;;;;;;5029135;28;21581;-87
2021/05/29 06:28:06;;;;;;;2.10;1.60;;;15.30;99.90;;;;;;5027064;28;20659;-86
2021/05/29 06:30:33;;;;;;;2.40;2.07;;;15.30;99.90;;;;;;5024756;28;20670;-87
2021/05/29 06:33:01;;;;;;;2.00;1.63;;;15.30;99.90;;;;;;5031332;28;20704;-87
2021/05/29 06:35:28;;;;;;;1.83;1.73;;;15.50;99.90;;;;;;5030109;28;20616;-87
2021/05/29 06:37:54;;;;;;;1.90;1.70;;;15.70;99.80;;;;;;5029209;28;20626;-89
2021/05/29 06:40:23;;;;;;;2.13;1.90;;;15.70;99.40;;;;;;5030906;28;20670;-88
2021/05/29 06:42:50;;;;;;;1.90;1.80;;;15.70;99.90;;;;;;5034045;28;21192;-85
2021/05/29 06:45:17;;;;;;;1.70;1.60;;;15.80;99.90;;;;;;5028335;28;20631;-87
2021/05/29 06:47:44;;;;;;;1.77;1.67;;;16.00;99.00;;;;;;5024659;28;21071;-88
2021/05/29 06:50:11;;;;;;;1.70;1.57;;;16.10;99.90;;;;;;5024901;28;20651;-88
2021/05/29 06:52:40;;;;;;;2.07;1.87;;;16.10;99.80;;;;;;5028118;28;20631;-88
2021/05/29 06:58:37;;;;;;;2.40;2.17;;;16.20;99.90;;;;;;5030740;28;20741;-88
2021/05/29 07:00:53;;;;;;;2.30;2.10;;;16.40;98.70;;;;;;5024958;28;20698;-88
2021/05/29 07:03:20;;;;;;;2.67;2.00;;;16.40;98.50;;;;;;5021949;28;21337;-88
2021/05/29 07:05:47;;;;;;;4.60;2.30;;;16.50;98.70;;;;;;5024965;28;20719;-87
2021/05/29 07:08:13;;;;;;;2.53;1.87;;;16.60;97.90;;;;;;5015769;28;20647;-87
2021/05/29 07:10:41;;;;;;;3.73;1.60;;;16.60;97.60;;;;;;5020750;28;21212;-86
2021/05/29 07:13:09;;;;;;;1.83;1.60;;;16.60;98.20;;;;;;5019512;28;21358;-88
2021/05/29 07:15:38;;;;;;;2.60;2.07;;;16.70;97.20;;;;;;5018104;28;20717;-88
2021/05/29 07:18:08;;;;;;;2.00;1.90;;;16.50;97.40;;;;;;5017055;28;20627;-86
2021/05/29 07:20:34;;;;;;;1.90;1.50;;;16.60;97.70;;;;;;5021139;28;20647;-87
2021/05/29 07:23:02;;;;;;;1.70;1.60;;;16.60;97.10;;;;;;5027125;28;20622;-88
2021/05/29 07:25:29;;;;;;;1.97;1.87;;;16.70;97.40;;;;;;5020798;28;20619;-86
2021/05/29 07:27:55;;;;;;;2.23;1.90;;;16.90;97.30;;;;;;5026518;28;20673;-88
2021/05/29 07:30:24;;;;;;;2.80;1.90;;;16.80;95.90;;;;;;5027553;28;21296;-89
2021/05/29 07:32:52;;;;;;;2.10;1.90;;;16.80;96.10;;;;;;5021709;28;20635;-89
2021/05/29 07:35:20;;;;;;;1.47;1.37;;;17.00;96.10;;;;;;5019933;28;20659;-89
2021/05/29 07:37:47;;;;;;;1.90;1.43;;;17.00;95.50;;;;;;5022990;28;20737;-89
2021/05/29 07:40:16;;;;;;;1.53;1.43;;;17.10;93.90;;;;;;5025224;28;20979;-90
2021/05/29 07:42:44;;;;;;;2.40;1.70;;;17.00;93.70;;;;;;5031675;28;21080;-92
2021/05/29 07:45:12;;;;;;;2.60;1.70;;;17.10;94.60;;;;;;5027218;28;21118;-87
2021/05/29 07:47:39;;;;;;;1.50;1.40;;;17.40;94.20;;;;;;5027915;28;20688;-87
2021/05/29 07:50:07;;;;;;;1.73;1.60;;;17.10;93.20;;;;;;5026778;28;20658;-87
2021/05/29 07:52:35;;;;;;;1.77;1.67;;;17.30;94.10;;;;;;5020128;28;20632;-87
2021/05/29 07:55:01;;;;;;;7.23;6.43;;;17.70;93.90;;;;;;5018945;28;20660;-87
2021/05/29 07:57:28;;;;;;;4.17;1.90;;;17.80;93.70;;;;;;5018388;28;20607;-86
2021/05/29 07:59:54;;;;;;;1.20;1.10;;;17.80;92.40;;;;;;5019941;28;20645;-85
2021/05/29 08:02:21;;;;;;;1.70;1.50;;;17.70;93.40;;;;;;5019056;28;20622;-87
2021/05/29 08:04:49;;;;;;;1.57;1.47;;;17.70;91.80;;;;;;5017132;28;20711;-87
2021/05/29 08:07:16;;;;;;;2.23;1.50;;;17.70;92.50;;;;;;5020055;28;20625;-85
2021/05/29 08:09:43;;;;;;;1.90;1.80;;;17.90;92.70;;;;;;5018278;28;20729;-87
2021/05/29 08:12:11;;;;;;;1.33;1.23;;;18.00;91.70;;;;;;5020323;28;20710;-87
2021/05/29 08:14:38;;;;;;;3.23;1.50;;;18.00;91.70;;;;;;5022093;28;20633;-87
2021/05/29 08:17:06;;;;;;;1.80;1.60;;;18.20;91.00;;;;;;5022791;28;20680;-88
2021/05/29 08:19:32;;;;;;;7.23;1.57;;;18.10;89.90;;;;;;5026093;28;20662;-86
2021/05/29 08:21:59;;;;;;;1.60;1.50;;;17.90;89.40;;;;;;5026463;28;20717;-87
2021/05/29 08:24:26;;;;;;;1.83;1.50;;;17.90;90.10;;;;;;5026198;28;20627;-86
2021/05/29 08:26:54;;;;;;;1.70;1.60;;;17.90;89.00;;;;;;5020121;28;21156;-86
2021/05/29 08:29:20;;;;;;;1.97;1.67;;;18.30;90.00;;;;;;5025360;28;20647;-86
2021/05/29 08:31:47;;;;;;;2.10;1.87;;;18.40;89.60;;;;;;5025815;28;20677;-85
2021/05/29 08:34:14;;;;;;;1.63;1.30;;;18.70;89.20;;;;;;5024648;28;20622;-88
2021/05/29 08:36:41;;;;;;;1.73;1.33;;;18.90;88.70;;;;;;5026684;28;20627;-87
2021/05/29 08:39:09;;;;;;;3.80;1.53;;;18.70;88.30;;;;;;5025586;28;20622;-87
2021/05/29 08:41:36;;;;;;;2.20;1.63;;;18.50;88.50;;;;;;5026022;28;20634;-88
2021/05/29 08:44:04;;;;;;;2.10;1.50;;;18.60;90.50;;;;;;5025417;28;20638;-86
2021/05/29 08:46:32;;;;;;;2.10;1.47;;;18.70;88.00;;;;;;5025030;28;20618;-87
2021/05/29 08:49:00;;;;;;;1.70;1.60;;;18.30;89.70;;;;;;5023294;28;20698;-87
2021/05/29 08:51:27;;;;;;;3.23;1.60;;;18.50;90.20;;;;;;5028554;28;20649;-87
2021/05/29 08:53:56;;;;;;;8.23;3.40;;;18.70;88.20;;;;;;5026313;28;20641;-87
2021/05/29 08:56:25;;;;;;;2.73;1.90;;;18.80;90.20;;;;;;5029798;28;20661;-86
2021/05/29 08:58:52;;;;;;;3.27;1.93;;;19.10;87.80;;;;;;5022209;28;20945;-87
2021/05/29 09:01:22;;;;;;;1.73;1.63;;;19.20;90.30;;;;;;5026264;28;20712;-87
2021/05/29 09:03:50;;;;;;;1.97;1.87;;;19.30;89.10;;;;;;5027574;28;20656;-86
2021/05/29 09:06:19;;;;;;;4.40;2.37;;;19.50;87.30;;;;;;5026315;28;20650;-86
2021/05/29 09:08:53;;;;;;;3.87;1.80;;;19.50;87.10;;;;;;5027455;28;20666;-86
2021/05/29 09:11:39;;;;;;;2.10;1.90;;;19.30;87.60;;;;;;5024200;28;20674;-86
2021/05/29 09:14:35;;;;;;;1.80;1.53;;;19.00;88.90;;;;;;5026709;28;20627;-86
2021/05/29 09:17:14;;;;;;;1.73;1.63;;;18.70;88.70;;;;;;5028223;28;20633;-86
2021/05/29 09:20:02;;;;;;;2.10;1.47;;;18.80;89.90;;;;;;5027870;28;20776;-86
2021/05/29 09:22:33;;;;;;;1.60;1.50;;;19.40;87.60;;;;;;5024559;28;20621;-90
2021/05/29 09:25:12;;;;;;;2.03;1.70;;;19.80;85.80;;;;;;5028936;28;20629;-89
2021/05/29 09:27:40;;;;;;;3.27;1.80;;;19.70;85.40;;;;;;5032807;28;20634;-91
2021/05/29 09:30:09;;;;;;;2.37;2.07;;;19.70;81.50;;;;;;5028957;28;20651;-89
2021/05/29 09:32:39;;;;;;;1.60;1.50;;;19.70;83.50;;;;;;5024166;28;21238;-89
2021/05/29 09:35:10;;;;;;;2.43;1.90;;;19.40;85.20;;;;;;5025838;28;20638;-89
2021/05/29 09:37:38;;;;;;;2.17;1.83;;;19.10;85.60;;;;;;5029008;28;20658;-89
2021/05/29 09:40:07;;;;;;;1.23;1.17;;;18.70;82.80;;;;;;5028529;28;20662;-90
2021/05/29 09:42:36;;;;;;;3.80;1.63;;;19.10;84.50;;;;;;5027424;28;20627;-89
2021/05/29 09:45:19;;;;;;;1.70;1.60;;;19.60;80.50;;;;;;5031035;28;20669;-90
2021/05/29 09:48:15;;;;;;;1.83;1.57;;;19.80;81.60;;;;;;5029070;28;20637;-90
2021/05/29 09:51:06;;;;;;;2.30;1.30;;;19.50;81.90;;;;;;5029347;28;20682;-90
2021/05/29 09:53:36;;;;;;;1.60;1.50;;;19.60;81.60;;;;;;5030476;28;20631;-90
2021/05/29 09:56:06;;;;;;;1.77;1.53;;;19.20;81.00;;;;;;5038972;28;21205;-90
2021/05/29 09:58:53;;;;;;;1.30;1.20;;;19.10;78.00;;;;;;5052310;28;20638;-90
2021/05/29 10:01:43;;;;;;;2.00;1.80;;;19.80;76.70;;;;;;5043972;28;20717;-89
2021/05/29 10:04:17;;;;;;;1.67;1.57;;;20.30;76.70;;;;;;5049454;28;20701;-91
2021/05/29 10:06:54;;;;;;;1.50;1.13;;;20.40;73.60;;;;;;5044500;28;20710;-90
2021/05/29 10:09:21;;;;;;;1.50;1.40;;;20.70;74.90;;;;;;5030066;28;21235;-90
2021/05/29 10:11:47;;;;;;;1.90;1.80;;;21.10;73.90;;;;;;5031324;28;21310;-90
2021/05/29 10:14:14;;;;;;;2.27;2.00;;;20.40;78.80;;;;;;5028658;28;20611;-90
2021/05/29 10:16:41;;;;;;;3.57;2.10;;;20.50;79.10;;;;;;5029572;28;20633;-90
2021/05/29 10:19:10;;;;;;;2.73;1.90;;;20.50;78.10;;;;;;5026429;28;20630;-90
2021/05/29 10:21:38;;;;;;;4.00;2.00;;;20.70;78.70;;;;;;5024882;28;20696;-90
2021/05/29 10:24:07;;;;;;;4.50;3.07;;;21.10;79.20;;;;;;5028149;28;20998;-89
2021/05/29 10:26:34;;;;;;;2.33;1.80;;;21.20;79.90;;;;;;5027977;28;20654;-90
2021/05/29 10:29:01;;;;;;;3.63;1.70;;;21.70;77.40;;;;;;5028470;28;20659;-90
2021/05/29 10:31:31;;;;;;;1.90;1.80;;;22.20;73.60;;;;;;5022037;28;20684;-90
2021/05/29 10:33:57;;;;;;;2.60;1.50;;;22.30;72.10;;;;;;5026580;28;20630;-90
2021/05/29 10:36:47;;;;;;;1.73;1.63;;;22.60;71.60;;;;;;5024780;28;20642;-90
2021/05/29 10:39:23;;;;;;;2.57;1.60;;;21.80;72.00;;;;;;5021068;28;20653;-90
2021/05/29 10:41:58;;;;;;;3.73;1.40;;;21.80;74.70;;;;;;5021580;28;21209;-90
2021/05/29 10:44:38;;;;;;;1.77;1.67;;;21.10;74.90;;;;;;5021439;28;21112;-89
2021/05/29 10:47:13;;;;;;;1.27;1.17;;;20.30;77.10;;;;;;5027023;28;20723;-89
2021/05/29 10:49:58;;;;;;;2.00;1.30;;;20.20;78.80;;;;;;5026175;28;20690;-89
2021/05/29 10:52:53;;;;;;;2.00;1.27;;;20.10;79.60;;;;;;5020337;28;20631;-88
2021/05/29 10:55:27;;;;;;;1.40;1.30;;;20.70;77.40;;;;;;5028562;28;20623;-89
2021/05/29 10:57:55;;;;;;;1.67;1.43;;;20.90;76.30;;;;;;5019524;28;20661;-89
2021/05/29 11:00:50;;;;;;;1.50;1.40;;;21.10;74.90;;;;;;5021109;28;20671;-88
2021/05/29 11:03:25;;;;;;;3.83;1.40;;;21.40;74.90;;;;;;5021090;28;20708;-89
2021/05/29 11:05:54;;;;;;;3.30;1.33;;;20.90;73.60;;;;;;5024654;28;21237;-88
2021/05/29 11:08:47;;;;;;;1.60;1.37;;;20.90;74.70;;;;;;5015821;28;20646;-88
2021/05/29 11:11:52;;;;;;;1.63;1.53;;;20.80;70.80;;;;;;5022745;28;20654;-88
2021/05/29 11:14:19;;;;;;;1.50;1.40;;;20.80;71.40;;;;;;5023830;28;21208;-88
2021/05/29 11:17:10;;;;;;;2.30;0.90;;;21.40;67.40;;;;;;5024803;28;20623;-88
2021/05/29 11:19:39;;;;;;;1.57;1.47;;;21.60;65.50;;;;;;5013036;28;20674;-89
2021/05/29 11:22:08;;;;;;;2.00;1.27;;;22.10;67.30;;;;;;5024552;28;20635;-88
2021/05/29 11:24:38;;;;;;;1.53;1.43;;;22.90;65.70;;;;;;5019991;28;20637;-88
2021/05/29 11:27:06;;;;;;;1.43;1.27;;;22.90;63.50;;;;;;5024220;28;21284;-88
2021/05/29 11:29:53;;;;;;;2.10;1.33;;;23.10;59.90;;;;;;5027587;28;20678;-88
2021/05/29 11:32:42;;;;;;;1.30;1.20;;;22.80;59.20;;;;;;5029610;28;20634;-88
2021/05/29 11:35:17;;;;;;;1.73;1.30;;;23.60;60.20;;;;;;5026692;28;20673;-88
2021/05/29 11:37:55;;;;;;;1.33;1.23;;;22.40;58.50;;;;;;5025909;28;20614;-88
2021/05/29 11:40:22;;;;;;;1.57;1.47;;;22.10;61.50;;;;;;5022764;28;20662;-89
2021/05/29 11:42:52;;;;;;;1.47;1.13;;;21.40;62.80;;;;;;5027495;28;20634;-89
2021/05/29 11:45:19;;;;;;;1.20;1.10;;;21.10;65.00;;;;;;5025195;28;20637;-89
2021/05/29 11:47:45;;;;;;;2.03;1.53;;;20.90;64.50;;;;;;5025682;28;20630;-89
2021/05/29 11:50:16;;;;;;;1.60;0.90;;;21.20;63.80;;;;;;5025547;28;20665;-88
2021/05/29 11:52:46;;;;;;;2.60;0.90;;;22.60;64.40;;;;;;5023435;28;20631;-88
2021/05/29 11:55:14;;;;;;;0.90;0.90;;;23.40;57.90;;;;;;5024237;28;21148;-89
2021/05/29 11:57:58;;;;;;;0.80;0.80;;;22.80;58.70;;;;;;5025047;28;20638;-89
2021/05/29 12:00:26;;;;;;;1.70;1.20;;;22.10;57.20;;;;;;5025848;28;20657;-88
2021/05/29 12:02:53;;;;;;;1.43;1.03;;;21.50;59.80;;;;;;5030892;28;20665;-88
2021/05/29 12:05:20;;;;;;;1.33;1.20;;;21.20;61.70;;;;;;5024187;28;20635;-88
2021/05/29 12:08:03;;;;;;;1.73;1.10;;;21.10;61.70;;;;;;5025701;28;20627;-88
2021/05/29 12:10:49;;;;;;;1.27;1.17;;;22.20;59.90;;;;;;5028542;28;20662;-89
2021/05/29 12:13:24;;;;;;;3.13;1.00;;;23.20;58.80;;;;;;5030009;28;20647;-88
2021/05/29 12:15:55;;;;;;;0.83;0.83;;;24.10;56.70;;;;;;5046005;28;20709;-88
2021/05/29 12:18:22;;;;;;;1.23;0.70;;;24.20;58.70;;;;;;5048065;28;20618;-88
2021/05/29 12:20:59;;;;;;;2.00;0.90;;;25.00;57.80;;;;;;5043621;28;20742;-88
2021/05/29 12:23:26;;;;;;;1.80;1.03;;;24.00;56.40;;;;;;5043037;28;20637;-87
2021/05/29 12:25:53;;;;;;;3.17;1.20;;;22.90;56.40;;;;;;5046357;28;20630;-88
2021/05/29 12:28:21;;;;;;;1.10;1.00;;;22.40;57.80;;;;;;5036817;28;20671;-89
2021/05/29 12:30:52;;;;;;;1.87;1.00;;;22.10;57.70;;;;;;5040237;28;21198;-87
2021/05/29 12:33:23;;;;;;;1.93;0.87;;;21.70;58.30;;;;;;5039760;28;20622;-88
2021/05/29 12:36:05;;;;;;;3.37;0.87;;;22.60;58.20;;;;;;5036024;28;21123;-89
2021/05/29 12:38:31;;;;;;;1.03;0.93;;;24.40;57.50;;;;;;5035159;28;21206;-88
2021/05/29 12:40:59;;;;;;;1.10;1.00;;;24.80;55.90;;;;;;5026386;28;20681;-87
2021/05/29 12:43:26;;;;;;;2.10;0.83;;;25.00;55.60;;;;;;5022971;28;20654;-87
2021/05/29 12:45:53;;;;;;;1.07;0.97;;;24.10;56.80;;;;;;5028621;28;20626;-89
2021/05/29 12:48:20;;;;;;;1.07;0.97;;;23.90;56.80;;;;;;5025903;28;20660;-89
2021/05/29 12:51:09;;;;;;;0.83;0.83;;;24.60;56.20;;;;;;5021935;28;21212;-89
2021/05/29 12:53:37;;;;;;;0.80;0.80;;;25.50;55.20;;;;;;5023893;28;20918;-88
2021/05/29 12:56:12;;;;;;;0.83;0.70;;;26.10;54.40;;;;;;5028459;28;20626;-89
2021/05/29 12:58:39;;;;;;;1.27;0.90;;;26.60;51.50;;;;;;5019576;28;20621;-88
2021/05/29 13:01:28;;;;;;;0.80;0.70;;;26.90;50.90;;;;;;5023348;28;20658;-90
2021/05/29 13:09:29;;;;;;;1.10;0.73;;;26.40;50.50;;;;;;5019373;28;20678;-89
2021/05/29 13:11:56;;;;;;;2.63;0.87;;;25.20;50.60;;;;;;5024279;28;21293;-89
2021/05/29 13:14:29;;;;;;;1.03;0.90;;;24.30;51.40;;;;;;5027800;28;20653;-88
2021/05/29 13:16:59;;;;;;;1.20;0.87;;;24.10;51.90;;;;;;5021919;28;20654;-89
2021/05/29 13:19:28;;;;;;;1.87;0.87;;;25.50;51.70;;;;;;5021811;28;20631;-90
2021/05/29 13:21:58;;;;;;;3.83;1.03;;;26.30;49.40;;;;;;5022282;28;20710;-89